Time;durP1;ratioP1;P1;durP2;ratioP2;P2;SDS_P1;SDS_P2;PMS_P1;PMS_P2;Temp;Humidity;BMP_temperature;BMP_pressure;BME280_temperature;BME280_humidity;BME280_pressure;Samples;Min_cycle;Max_cycle;Signal;HPM_P1;HPM_P2
2023/07/31 00:01:07;;;;;;;4.35;2.40;;;;;;;19.80;56.08;98925.53;5142858;27;20039;-70
2023/07/31 00:03:34;;;;;;;3.88;2.22;;;;;;;20.07;56.06;98964.09;5142778;28;20047;-70
2023/07/31 00:06:00;;;;;;;3.63;2.10;;;;;;;20.01;56.14;98960.19;5143912;27;20100;-70
2023/07/31 00:08:27;;;;;;;3.78;2.17;;;;;;;19.92;56.32;98957.56;5144071;27;20035;-70
2023/07/31 00:10:54;;;;;;;2.70;1.90;;;;;;;19.96;56.23;98958.94;5143447;27;20073;-70
2023/07/31 00:13:22;;;;;;;3.78;2.15;;;;;;;19.93;56.11;98964.63;5142517;28;20047;-71
2023/07/31 00:15:49;;;;;;;3.70;2.45;;;;;;;19.90;56.28;98965.78;5143703;27;20043;-71
2023/07/31 00:18:16;;;;;;;2.83;2.17;;;;;;;19.89;56.32;98953.34;5143007;27;20050;-71
2023/07/31 00:20:42;;;;;;;4.70;2.00;;;;;;;19.93;56.18;98951.19;5142435;28;20043;-71
2023/07/31 00:23:09;;;;;;;4.35;2.20;;;;;;;19.93;56.45;98973.56;5143573;27;20035;-70
2023/07/31 00:25:36;;;;;;;3.97;2.00;;;;;;;19.91;56.08;98967.47;5143778;27;20055;-71
2023/07/31 00:28:02;;;;;;;4.15;2.38;;;;;;;19.90;56.18;98964.94;5143517;27;20195;-71
2023/07/31 00:30:31;;;;;;;4.53;2.42;;;;;;;19.73;55.98;98947.78;5141967;28;20211;-70
2023/07/31 00:32:57;;;;;;;4.18;2.42;;;;;;;19.88;56.24;98969.63;5143573;27;20047;-70
2023/07/31 00:35:24;;;;;;;3.55;2.20;;;;;;;17.24;54.70;98529.31;5143320;27;20043;-71
2023/07/31 00:37:51;;;;;;;3.90;1.98;;;;;;;19.81;56.10;98964.88;5142983;27;20066;-70
2023/07/31 00:40:18;;;;;;;2.90;1.70;;;;;;;19.51;56.30;98936.47;5143495;27;20057;-70
2023/07/31 00:42:45;;;;;;;3.80;1.92;;;;;;;19.85;55.95;98970.78;5142736;27;20054;-70
2023/07/31 00:45:11;;;;;;;3.42;2.05;;;;;;;19.64;55.97;98946.00;5141909;28;20036;-70
2023/07/31 00:47:40;;;;;;;3.03;2.15;;;;;;;19.75;56.27;98970.81;5125014;28;20039;-70
2023/07/31 00:50:08;;;;;;;3.15;2.08;;;;;;;19.74;55.97;98970.97;5096485;28;20050;-70
2023/07/31 00:52:36;;;;;;;3.38;2.30;;;;;;;19.42;56.16;98928.44;5128778;28;20176;-70
2023/07/31 00:55:03;;;;;;;4.32;2.45;;;;;;;19.66;56.43;98981.63;5128847;28;20230;-70
2023/07/31 00:57:31;;;;;;;3.75;1.98;;;;;;;19.63;56.08;98981.94;5128553;28;20036;-70
2023/07/31 00:59:58;;;;;;;2.80;2.08;;;;;;;19.65;56.05;98980.78;5129422;28;20230;-71
2023/07/31 01:02:25;;;;;;;4.45;2.28;;;;;;;19.67;55.41;98977.94;5129173;28;20052;-71
2023/07/31 01:04:53;;;;;;;6.43;2.40;;;;;;;19.32;56.31;98941.06;5128004;28;20077;-70
2023/07/31 01:07:28;;;;;;;4.45;2.50;;;;;;;19.58;56.43;98984.22;5128761;28;20036;-72
2023/07/31 01:10:05;;;;;;;3.15;2.20;;;;;;;18.96;56.57;98881.88;5128672;28;20043;-71
2023/07/31 01:12:33;;;;;;;3.72;2.42;;;;;;;19.55;56.72;98977.31;5129762;28;20048;-70
2023/07/31 01:15:10;;;;;;;3.80;2.05;;;;;;;19.58;56.16;98986.91;5128286;28;20237;-71
2023/07/31 01:17:37;;;;;;;3.05;2.08;;;;;;;18.15;56.49;98738.59;5127664;28;20044;-70
2023/07/31 01:20:12;;;;;;;3.78;2.00;;;;;;;19.59;56.21;98969.78;5128564;28;20187;-71
2023/07/31 01:22:50;;;;;;;4.45;1.83;;;;;;;19.41;56.00;98951.78;5128818;28;20305;-72
2023/07/31 01:25:37;;;;;;;3.03;1.80;;;;;;;19.47;56.10;98956.56;5128655;28;20051;-71
2023/07/31 01:28:08;;;;;;;3.25;1.77;;;;;;;19.53;55.91;98966.72;5128211;28;20081;-71
2023/07/31 01:30:42;;;;;;;3.20;1.95;;;;;;;19.19;56.03;98923.47;5127406;28;20055;-71
2023/07/31 01:33:09;;;;;;;2.60;1.80;;;;;;;19.24;56.62;98939.97;5127398;28;20222;-73
2023/07/31 01:35:38;;;;;;;2.92;2.10;;;;;;;19.44;56.26;98964.94;5128209;28;20047;-73
2023/07/31 01:38:05;;;;;;;5.55;2.08;;;;;;;19.32;56.24;98943.75;5127057;28;20057;-72
2023/07/31 01:40:32;;;;;;;2.92;2.10;;;;;;;19.33;55.93;98948.13;5128138;28;20059;-72
2023/07/31 01:42:59;;;;;;;4.50;2.28;;;;;;;19.41;56.29;98965.22;5127205;28;20046;-71
2023/07/31 01:45:27;;;;;;;4.05;1.88;;;;;;;19.44;55.81;98970.31;5128240;28;20311;-70
2023/07/31 01:47:54;;;;;;;2.78;1.80;;;;;;;19.26;56.29;98944.34;5127953;28;20107;-70
2023/07/31 01:50:21;;;;;;;3.97;2.10;;;;;;;19.38;56.01;98970.88;5127045;28;20046;-70
2023/07/31 01:52:47;;;;;;;2.78;1.80;;;;;;;19.37;56.32;98965.66;5126669;28;20047;-71
2023/07/31 01:55:14;;;;;;;3.17;2.30;;;;;;;19.32;56.72;98973.31;5128033;28;20051;-71
2023/07/31 01:57:41;;;;;;;4.13;2.25;;;;;;;19.29;56.92;98974.44;5127656;28;20187;-71
2023/07/31 02:00:09;;;;;;;3.40;1.80;;;;;;;19.34;56.52;98979.38;5127384;28;20051;-71
2023/07/31 02:02:37;;;;;;;7.00;2.20;;;;;;;18.94;56.69;98936.72;5126910;28;20059;-71
2023/07/31 02:05:04;;;;;;;3.28;2.40;;;;;;;19.23;57.07;98991.16;5127219;28;20114;-70
2023/07/31 02:07:31;;;;;;;2.55;1.85;;;;;;;19.16;57.93;98990.91;5126828;28;20292;-70
2023/07/31 02:09:58;;;;;;;3.50;2.00;;;;;;;19.18;57.78;98996.13;5128015;28;20055;-70
2023/07/31 02:12:24;;;;;;;3.22;1.90;;;;;;;19.21;57.62;99001.22;5126857;28;20040;-70
2023/07/31 02:14:51;;;;;;;4.32;2.13;;;;;;;19.22;57.50;99003.75;5127640;28;20097;-70
2023/07/31 02:17:18;;;;;;;4.20;1.88;;;;;;;19.23;57.15;98996.53;5126509;28;20050;-71
2023/07/31 02:19:49;;;;;;;2.78;1.90;;;;;;;19.15;57.23;99002.66;5126438;28;20031;-70
2023/07/31 02:22:15;;;;;;;8.57;2.38;;;;;;;19.18;57.36;99009.56;5127223;28;20047;-70
2023/07/31 02:24:42;;;;;;;2.63;1.80;;;;;;;19.15;57.24;99008.03;5127146;28;20043;-70
2023/07/31 02:27:09;;;;;;;4.18;2.13;;;;;;;19.13;57.66;99011.84;5127540;28;20051;-71
2023/07/31 02:29:36;;;;;;;3.88;2.53;;;;;;;18.50;57.32;98956.03;5126332;28;20088;-71
2023/07/31 02:32:03;;;;;;;3.15;2.17;;;;;;;17.80;57.32;98791.03;5126402;28;20040;-70
2023/07/31 02:34:29;;;;;;;4.40;2.60;;;;;;;18.15;58.04;98851.22;5127000;28;20299;-71
2023/07/31 02:36:57;;;;;;;4.43;2.78;;;;;;;19.08;58.08;99012.28;5127245;28;20116;-71
2023/07/31 02:39:24;;;;;;;3.08;2.00;;;;;;;19.11;57.44;99005.78;5126661;28;20040;-70
2023/07/31 02:41:51;;;;;;;3.72;2.13;;;;;;;19.08;57.75;99009.59;5126560;28;20041;-70
2023/07/31 02:44:17;;;;;;;3.13;1.98;;;;;;;19.06;57.77;99008.91;5127389;28;20043;-71
2023/07/31 02:46:44;;;;;;;4.10;2.47;;;;;;;19.02;57.99;99006.66;5126106;28;20311;-71
2023/07/31 02:49:11;;;;;;;3.45;2.20;;;;;;;19.02;57.69;99009.34;5127217;28;20039;-71
2023/07/31 02:51:38;;;;;;;3.20;2.20;;;;;;;19.02;57.73;99001.28;5125868;28;20036;-70
2023/07/31 02:54:06;;;;;;;3.10;2.03;;;;;;;18.78;57.86;98981.16;5125848;28;20055;-71
2023/07/31 02:56:32;;;;;;;3.65;2.03;;;;;;;17.71;57.77;98804.44;5125810;28;20039;-71
2023/07/31 02:58:59;;;;;;;4.10;2.42;;;;;;;18.43;58.42;98924.56;5126659;28;20049;-71
2023/07/31 03:01:26;;;;;;;3.60;2.10;;;;;;;18.27;58.57;98931.38;5125933;28;20044;-71
2023/07/31 03:03:53;;;;;;;3.85;2.08;;;;;;;18.90;58.82;99014.03;5126496;28;20039;-71
2023/07/31 03:06:19;;;;;;;3.67;2.17;;;;;;;18.89;58.34;99017.72;5125648;28;20067;-72
2023/07/31 03:08:46;;;;;;;3.30;2.30;;;;;;;18.86;58.50;99026.91;5126510;28;20040;-71
2023/07/31 03:11:15;;;;;;;4.50;2.28;;;;;;;18.96;58.29;99015.31;5125593;28;20047;-71
2023/07/31 03:13:41;;;;;;;4.35;2.13;;;;;;;18.80;58.66;99027.50;5125695;28;20051;-72
2023/07/31 03:16:08;;;;;;;4.47;1.95;;;;;;;18.88;58.29;99026.75;5126877;28;20051;-71
2023/07/31 03:18:35;;;;;;;3.05;2.25;;;;;;;18.86;58.50;99026.91;5126515;28;20081;-71
2023/07/31 03:21:02;;;;;;;3.90;2.10;;;;;;;18.83;58.73;99032.56;5126136;28;20088;-70
2023/07/31 03:23:29;;;;;;;3.35;2.25;;;;;;;18.82;58.91;99028.19;5126013;28;20047;-71
2023/07/31 03:25:57;;;;;;;3.83;2.40;;;;;;;17.09;58.92;98773.53;5126152;28;20049;-71
2023/07/31 03:28:25;;;;;;;3.13;2.13;;;;;;;18.78;59.12;99031.31;5125302;28;20059;-71
2023/07/31 03:30:52;;;;;;;3.60;2.20;;;;;;;18.76;58.88;99036.81;5126240;28;20122;-70
2023/07/31 03:33:19;;;;;;;2.95;2.15;;;;;;;17.53;59.05;98837.28;5126152;28;20047;-70
2023/07/31 03:35:46;;;;;;;3.83;2.20;;;;;;;18.82;58.65;99036.25;5126375;28;20297;-71
2023/07/31 03:38:12;;;;;;;3.60;2.47;;;;;;;18.73;59.90;99042.47;5124984;28;20052;-71
2023/07/31 03:40:39;;;;;;;3.97;2.45;;;;;;;18.79;59.29;99036.53;5126259;28;20202;-71
2023/07/31 03:43:06;;;;;;;5.35;3.03;;;;;;;18.77;59.74;99043.88;5125102;28;20226;-71
2023/07/31 03:45:34;;;;;;;4.00;2.65;;;;;;;17.82;60.51;98888.22;5126269;28;20051;-71
2023/07/31 03:48:01;;;;;;;4.05;2.80;;;;;;;18.76;60.61;99047.56;5125123;28;20039;-71
2023/07/31 03:50:28;;;;;;;4.32;3.10;;;;;;;18.71;61.08;99044.47;5126028;28;20073;-71
2023/07/31 03:52:55;;;;;;;4.43;2.58;;;;;;;18.77;60.50;99043.88;5126201;28;20051;-71
2023/07/31 03:55:22;;;;;;;5.70;3.00;;;;;;;18.70;60.89;99072.28;5126445;28;20184;-71
2023/07/31 03:57:49;;;;;;;4.50;3.08;;;;;;;18.68;60.92;99051.97;5126192;28;20039;-71
2023/07/31 04:00:16;;;;;;;6.45;3.22;;;;;;;18.66;61.65;99049.41;5125893;28;20039;-70
2023/07/31 04:02:44;;;;;;;4.57;2.60;;;;;;;18.67;61.95;99045.75;5125721;28;20052;-71
2023/07/31 04:05:11;;;;;;;4.40;2.97;;;;;;;18.45;62.17;99020.03;5125854;28;20106;-71
2023/07/31 04:07:38;;;;;;;3.72;2.75;;;;;;;18.62;63.01;99049.84;5124942;28;20044;-72
2023/07/31 04:10:05;;;;;;;3.70;2.75;;;;;;;18.63;62.72;99054.22;5126328;28;20043;-71
2023/07/31 04:12:32;;;;;;;3.28;2.30;;;;;;;18.65;63.62;99054.94;5126273;28;20044;-72
2023/07/31 04:14:59;;;;;;;3.33;2.42;;;;;;;18.64;63.15;99051.41;5125685;28;20360;-71
2023/07/31 04:17:25;;;;;;;3.33;2.53;;;;;;;18.13;63.34;98952.41;5125602;28;20040;-71
2023/07/31 04:19:53;;;;;;;3.45;2.60;;;;;;;17.64;62.84;98887.25;5125844;28;20276;-71
2023/07/31 04:22:20;;;;;;;4.38;2.72;;;;;;;18.75;62.60;99039.66;5126226;28;20211;-71
2023/07/31 04:24:47;;;;;;;4.75;2.53;;;;;;;18.71;62.79;99035.56;5127978;28;20043;-71
2023/07/31 04:27:14;;;;;;;5.10;3.55;;;;;;;18.71;63.01;99036.41;5129732;28;20089;-72
2023/07/31 04:29:42;;;;;;;4.15;2.83;;;;;;;18.74;62.52;99028.06;5129383;28;20043;-71
2023/07/31 04:32:09;;;;;;;4.65;2.83;;;;;;;16.92;62.39;98727.72;5128869;28;20299;-71
2023/07/31 04:34:36;;;;;;;4.88;2.90;;;;;;;18.68;62.96;99030.47;5129206;28;20051;-71
2023/07/31 04:37:04;;;;;;;3.58;2.85;;;;;;;18.48;63.52;99002.78;5128427;28;20051;-71
2023/07/31 04:39:31;;;;;;;3.30;2.63;;;;;;;18.71;62.69;99038.25;5129741;28;20050;-71
2023/07/31 04:41:58;;;;;;;4.85;2.85;;;;;;;18.68;62.41;99036.69;5129663;28;20116;-71
2023/07/31 04:44:24;;;;;;;5.43;3.53;;;;;;;18.72;62.50;99037.25;5128907;28;20051;-72
2023/07/31 04:46:51;;;;;;;4.18;2.70;;;;;;;18.76;62.29;99031.47;5129536;28;20055;-69
2023/07/31 04:49:19;;;;;;;4.10;2.85;;;;;;;18.83;61.62;99029.88;5129196;28;20035;-69
2023/07/31 04:51:45;;;;;;;3.90;2.78;;;;;;;18.83;61.57;99034.41;5129509;28;20048;-69
2023/07/31 04:54:14;;;;;;;4.40;2.83;;;;;;;18.78;60.79;99032.16;5128884;28;20092;-70
2023/07/31 04:56:41;;;;;;;6.85;2.90;;;;;;;18.55;60.55;99017.38;5129141;28;20111;-70
2023/07/31 04:59:08;;;;;;;4.20;2.88;;;;;;;18.76;60.83;99042.19;5127906;28;20172;-70
2023/07/31 05:01:35;;;;;;;3.38;2.38;;;;;;;18.79;60.94;99044.59;5127900;28;20032;-70
2023/07/31 05:04:02;;;;;;;4.63;2.85;;;;;;;18.64;60.59;99003.09;5129211;28;20043;-70
2023/07/31 05:06:28;;;;;;;6.38;2.78;;;;;;;18.85;60.74;99037.78;5127718;28;20246;-70
2023/07/31 05:08:55;;;;;;;6.38;3.28;;;;;;;18.88;60.55;99042.88;5129170;28;20035;-70
2023/07/31 05:11:23;;;;;;;7.80;2.65;;;;;;;18.94;59.51;99038.75;5128593;28;20199;-70
2023/07/31 05:13:50;;;;;;;3.50;2.63;;;;;;;18.95;58.94;99049.38;5128105;28;20048;-71
2023/07/31 05:16:17;;;;;;;5.13;2.80;;;;;;;18.92;59.04;99058.56;5127584;28;20035;-70
2023/07/31 05:18:43;;;;;;;3.95;2.85;;;;;;;19.01;58.36;99056.00;5128663;28;20042;-70
2023/07/31 05:21:10;;;;;;;4.40;2.83;;;;;;;19.01;58.46;99051.47;5128497;28;20322;-70
2023/07/31 05:23:37;;;;;;;3.70;2.80;;;;;;;18.99;58.44;99056.13;5128593;27;20039;-70
2023/07/31 05:26:05;;;;;;;5.20;3.38;;;;;;;18.79;58.38;99025.81;5127277;28;20040;-71
2023/07/31 05:28:34;;;;;;;5.47;2.50;;;;;;;18.83;58.19;99029.88;5128341;28;20051;-70
2023/07/31 05:31:02;;;;;;;5.15;2.17;;;;;;;18.57;58.08;98988.53;5128359;28;20055;-70
2023/07/31 05:33:28;;;;;;;4.18;2.33;;;;;;;18.97;57.81;99060.81;5128100;28;20039;-69
2023/07/31 05:35:55;;;;;;;4.35;2.50;;;;;;;18.68;58.18;99014.38;5128370;28;20047;-70
2023/07/31 05:38:22;;;;;;;4.38;2.55;;;;;;;18.98;57.86;99077.75;5128183;28;20051;-71
2023/07/31 05:40:49;;;;;;;7.32;2.60;;;;;;;18.81;57.94;99042.59;5128011;28;20048;-70
2023/07/31 05:43:15;;;;;;;4.00;2.53;;;;;;;18.98;58.25;99072.41;5128207;28;20043;-70
2023/07/31 05:45:44;;;;;;;3.08;2.00;;;;;;;18.87;58.38;99043.88;5128171;28;20044;-70
2023/07/31 05:48:11;;;;;;;4.82;2.85;;;;;;;18.94;57.68;99061.09;5128126;28;20051;-70
2023/07/31 05:50:39;;;;;;;4.85;2.30;;;;;;;19.02;57.89;99063.91;5127766;28;20092;-71
2023/07/31 05:53:05;;;;;;;3.13;2.05;;;;;;;18.99;57.85;99069.56;5127245;28;20043;-70
2023/07/31 05:55:32;;;;;;;3.60;2.40;;;;;;;19.03;57.74;99062.91;5127801;28;20070;-71
2023/07/31 05:57:59;;;;;;;5.80;2.95;;;;;;;19.07;57.56;99068.84;5126680;28;20044;-71
2023/07/31 06:00:25;;;;;;;3.42;2.30;;;;;;;19.09;57.46;99066.84;5127507;28;20295;-71
2023/07/31 06:02:53;;;;;;;4.53;2.97;;;;;;;19.13;57.30;99069.09;5128298;28;20254;-71
2023/07/31 06:05:20;;;;;;;3.40;1.98;;;;;;;19.05;57.44;99057.41;5128168;28;20044;-70
2023/07/31 06:07:47;;;;;;;3.88;2.63;;;;;;;19.11;57.04;99063.03;5127449;28;20099;-71
2023/07/31 06:10:14;;;;;;;5.35;2.85;;;;;;;19.11;57.04;99065.72;5127763;28;20048;-70
2023/07/31 06:12:41;;;;;;;4.35;2.85;;;;;;;19.08;57.22;99063.31;5127339;28;20065;-70
2023/07/31 06:15:08;;;;;;;4.40;3.28;;;;;;;19.18;56.58;99063.28;5127899;28;20089;-71
2023/07/31 06:17:34;;;;;;;4.45;2.47;;;;;;;18.99;57.10;99031.13;5127286;28;20055;-71
2023/07/31 06:20:04;;;;;;;6.47;2.30;;;;;;;19.24;57.45;99068.09;5127438;28;20054;-71
2023/07/31 06:22:31;;;;;;;5.15;2.83;;;;;;;19.17;57.22;99048.16;5127059;28;20049;-71
2023/07/31 06:25:00;;;;;;;3.33;2.08;;;;;;;19.28;56.43;99074.00;5127223;28;20047;-71
2023/07/31 06:27:27;;;;;;;3.33;2.15;;;;;;;18.97;56.55;99022.38;5127403;28;20172;-71
2023/07/31 06:29:57;;;;;;;3.83;2.40;;;;;;;19.33;56.10;99069.88;5109305;28;20114;-71
2023/07/31 06:32:24;;;;;;;3.55;2.55;;;;;;;19.33;56.06;99059.13;5127316;28;20058;-71
2023/07/31 06:34:50;;;;;;;3.72;2.38;;;;;;;19.37;55.43;99065.91;5127039;28;20047;-71
2023/07/31 06:37:19;;;;;;;3.70;2.65;;;;;;;19.44;55.22;99059.00;5127039;28;20058;-72
2023/07/31 06:39:45;;;;;;;4.38;2.53;;;;;;;19.44;55.42;99061.69;5126720;28;20039;-71
2023/07/31 06:42:12;;;;;;;4.13;3.33;;;;;;;19.44;55.15;99061.69;5126351;28;20036;-71
2023/07/31 06:44:39;;;;;;;4.25;2.47;;;;;;;19.43;54.91;99065.34;5127013;28;20097;-71
2023/07/31 06:47:06;;;;;;;6.68;2.85;;;;;;;18.89;54.70;98978.28;5125569;28;20367;-70
2023/07/31 06:49:33;;;;;;;4.13;2.78;;;;;;;19.58;54.28;99064.88;5127246;28;20199;-71
2023/07/31 06:52:00;;;;;;;3.67;2.65;;;;;;;19.66;54.23;99064.97;5126151;28;20115;-70
2023/07/31 06:54:28;;;;;;;3.78;2.60;;;;;;;19.68;53.10;99057.59;5126801;28;20067;-70
2023/07/31 06:56:54;;;;;;;4.68;2.88;;;;;;;19.61;52.36;99062.72;5126759;28;20043;-70
2023/07/31 06:59:21;;;;;;;3.10;2.30;;;;;;;19.65;51.41;99071.34;5125871;28;20143;-70
2023/07/31 07:01:48;;;;;;;4.63;2.45;;;;;;;19.69;50.04;99057.47;5126326;28;20051;-70
2023/07/31 07:04:15;;;;;;;5.15;2.40;;;;;;;19.75;50.71;99051.47;5125935;28;20047;-70
2023/07/31 07:06:42;;;;;;;4.10;2.08;;;;;;;20.13;50.70;99052.25;5126880;28;20039;-69
2023/07/31 07:09:09;;;;;;;5.05;2.63;;;;;;;20.10;49.77;99026.50;5125479;28;20100;-69
2023/07/31 07:11:37;;;;;;;6.80;2.90;;;;;;;20.27;48.88;99046.38;5126819;28;20043;-69
2023/07/31 07:14:04;;;;;;;3.88;2.70;;;;;;;20.53;49.06;99051.84;5125692;28;20039;-69
2023/07/31 07:16:31;;;;;;;4.32;2.40;;;;;;;20.72;47.87;99046.25;5126759;28;20070;-70
2023/07/31 07:18:57;;;;;;;4.15;2.58;;;;;;;20.08;48.35;98960.41;5126673;28;20047;-69
2023/07/31 07:21:24;;;;;;;3.45;2.03;;;;;;;20.68;48.23;99020.66;5126385;28;20040;-69
2023/07/31 07:23:51;;;;;;;3.25;2.15;;;;;;;20.89;46.67;99041.84;5126032;28;20065;-69
2023/07/31 07:26:17;;;;;;;4.50;1.90;;;;;;;20.87;46.01;99033.09;5126075;28;20107;-68
2023/07/31 07:28:45;;;;;;;3.88;2.13;;;;;;;20.90;45.79;99015.75;5126127;28;20043;-69
2023/07/31 07:31:12;;;;;;;4.05;2.20;;;;;;;21.07;45.58;99045.38;5124983;28;20039;-69
2023/07/31 07:33:39;;;;;;;4.05;2.35;;;;;;;21.19;45.58;99040.56;5125204;28;20043;-69
2023/07/31 07:36:09;;;;;;;4.60;2.47;;;;;;;21.41;44.52;99031.91;5126272;28;20043;-70
2023/07/31 07:38:36;;;;;;;3.75;2.55;;;;;;;21.51;44.37;99036.34;5124867;28;20126;-69
2023/07/31 07:41:03;;;;;;;3.85;2.05;;;;;;;21.51;44.96;99036.34;5126002;28;20035;-70
2023/07/31 07:43:29;;;;;;;2.92;1.90;;;;;;;21.53;44.90;99028.94;5125965;28;20051;-69
2023/07/31 07:45:57;;;;;;;2.92;1.90;;;;;;;21.64;44.79;99036.72;5126026;28;20100;-70
2023/07/31 07:48:25;;;;;;;5.60;2.13;;;;;;;21.43;44.36;99032.59;5126137;28;20254;-69
2023/07/31 07:50:51;;;;;;;4.05;1.95;;;;;;;21.51;44.82;99023.69;5125777;28;20032;-70
2023/07/31 07:53:18;;;;;;;5.25;2.05;;;;;;;21.66;43.65;98997.81;5124874;28;20103;-70
2023/07/31 07:55:45;;;;;;;4.75;2.85;;;;;;;21.41;42.86;99029.22;5126127;28;20039;-69
2023/07/31 07:58:11;;;;;;;4.00;2.40;;;;;;;21.51;43.17;99026.41;5125808;28;20341;-70
2023/07/31 08:00:38;;;;;;;5.53;2.60;;;;;;;21.43;44.00;99031.75;5111565;28;20044;-69
2023/07/31 08:03:07;;;;;;;5.43;2.20;;;;;;;21.41;43.40;99033.75;5130154;28;20092;-69
2023/07/31 08:05:34;;;;;;;4.20;2.17;;;;;;;21.39;43.55;99004.28;5128925;28;20084;-70
2023/07/31 08:08:01;;;;;;;3.88;2.05;;;;;;;21.72;43.37;99031.38;5129876;28;20047;-70
2023/07/31 08:10:27;;;;;;;4.00;2.20;;;;;;;21.83;43.04;99027.56;5130259;28;20058;-71
2023/07/31 08:12:54;;;;;;;4.38;2.55;;;;;;;21.98;42.87;99037.53;5130228;28;20330;-70
2023/07/31 08:15:21;;;;;;;3.85;2.20;;;;;;;21.95;43.18;99028.94;5129880;28;20051;-70
2023/07/31 08:17:47;;;;;;;3.50;2.10;;;;;;;21.90;43.39;99025.88;5129148;28;20039;-69
2023/07/31 08:20:15;;;;;;;5.25;2.25;;;;;;;21.81;43.58;99021.47;5130084;28;20093;-70
2023/07/31 08:22:42;;;;;;;4.65;2.17;;;;;;;22.02;43.33;99020.03;5128561;28;20047;-70
2023/07/31 08:25:09;;;;;;;4.60;2.15;;;;;;;22.19;43.11;99026.28;5129687;28;20047;-70
2023/07/31 08:27:36;;;;;;;5.00;2.25;;;;;;;22.22;41.97;99017.00;5128612;28;20039;-70
2023/07/31 08:30:03;;;;;;;3.88;2.50;;;;;;;22.56;42.39;99023.19;5130026;28;20238;-70
2023/07/31 08:32:30;;;;;;;3.42;2.42;;;;;;;22.71;41.94;99013.38;5128478;28;20211;-70
2023/07/31 08:34:57;;;;;;;4.32;2.45;;;;;;;23.09;40.96;99013.66;5129668;28;20050;-70
2023/07/31 08:37:25;;;;;;;3.88;2.35;;;;;;;22.89;40.56;99013.19;5129630;28;20063;-70
2023/07/31 08:39:52;;;;;;;5.40;2.17;;;;;;;22.66;39.86;99006.78;5128820;28;20040;-70
2023/07/31 08:42:19;;;;;;;3.25;2.05;;;;;;;23.16;39.97;99011.94;5129371;28;20043;-70
2023/07/31 08:44:47;;;;;;;5.22;2.08;;;;;;;22.81;39.28;98979.94;5128020;28;20039;-70
2023/07/31 08:47:15;;;;;;;5.03;2.25;;;;;;;22.99;38.94;99002.19;5127874;28;20050;-70
2023/07/31 08:49:43;;;;;;;4.70;2.13;;;;;;;23.25;38.84;99007.34;5128007;28;20036;-70
2023/07/31 08:52:11;;;;;;;5.93;1.95;;;;;;;23.01;38.55;99019.06;5128049;28;20043;-69
2023/07/31 08:54:39;;;;;;;3.97;2.60;;;;;;;22.97;39.10;99010.47;5129207;28;20039;-70
2023/07/31 08:57:08;;;;;;;5.22;2.28;;;;;;;22.97;39.01;99007.75;5128040;28;20130;-69
2023/07/31 08:59:36;;;;;;;3.55;2.10;;;;;;;23.04;38.92;99008.75;5129199;28;20054;-70
2023/07/31 09:02:06;;;;;;;6.03;2.67;;;;;;;23.68;38.63;98992.50;5129236;28;20055;-69
2023/07/31 09:04:33;;;;;;;5.47;2.33;;;;;;;23.86;38.40;98971.44;5128659;28;20054;-70
2023/07/31 09:07:03;;;;;;;6.10;2.75;;;;;;;23.67;38.25;98978.13;5128618;28;20036;-69
2023/07/31 09:09:29;;;;;;;3.45;2.10;;;;;;;23.36;38.52;98993.50;5128395;28;20044;-69
2023/07/31 09:11:59;;;;;;;3.60;2.28;;;;;;;23.43;38.92;98989.06;5128573;28;20192;-70
2023/07/31 09:14:26;;;;;;;5.85;2.20;;;;;;;23.26;39.40;98985.59;5128512;28;20050;-70
2023/07/31 09:16:54;;;;;;;3.33;1.90;;;;;;;23.08;39.23;98994.91;5128202;28;20346;-69
2023/07/31 09:19:28;;;;;;;7.90;2.20;;;;;;;23.17;38.92;98996.56;5127712;28;20051;-69
2023/07/31 09:21:55;;;;;;;3.38;2.15;;;;;;;23.28;39.33;98998.94;5128944;28;20035;-70
2023/07/31 09:24:30;;;;;;;5.88;2.30;;;;;;;23.07;39.65;99001.31;5128362;28;20044;-70
2023/07/31 09:26:59;;;;;;;5.22;2.90;;;;;;;23.45;38.89;98940.22;5128178;28;20295;-71
2023/07/31 09:29:27;;;;;;;6.43;2.55;;;;;;;24.15;38.76;98980.75;5128297;28;20067;-70
2023/07/31 09:31:55;;;;;;;3.78;2.08;;;;;;;23.87;38.66;98983.09;5127498;28;20031;-69
2023/07/31 09:34:30;;;;;;;3.88;2.25;;;;;;;23.67;39.23;98988.13;5128083;28;20299;-69
2023/07/31 09:37:02;;;;;;;5.63;2.53;;;;;;;23.33;39.20;98962.25;5128055;28;20059;-70
2023/07/31 09:39:30;;;;;;;6.40;2.15;;;;;;;23.32;39.14;98984.88;5127705;27;20045;-69
2023/07/31 09:41:59;;;;;;;4.63;2.13;;;;;;;23.26;39.15;98987.41;5126970;28;20242;-70
2023/07/31 09:44:38;;;;;;;4.55;2.00;;;;;;;23.17;38.89;98974.94;5127315;28;20050;-70
2023/07/31 09:47:06;;;;;;;3.83;2.10;;;;;;;23.21;38.86;98963.59;5127927;28;20097;-70
2023/07/31 09:49:33;;;;;;;3.72;2.00;;;;;;;23.44;39.28;98973.69;5127646;27;20089;-70
2023/07/31 09:52:00;;;;;;;4.00;2.03;;;;;;;23.56;39.20;98961.47;5127965;28;20044;-70
2023/07/31 09:54:26;;;;;;;3.78;2.20;;;;;;;23.25;38.47;98921.69;5126807;28;20043;-70
2023/07/31 09:56:55;;;;;;;3.50;1.80;;;;;;;23.12;38.09;98953.84;5126519;28;20051;-69
2023/07/31 09:59:23;;;;;;;5.93;2.10;;;;;;;23.29;38.41;98976.28;5127914;28;20234;-69
2023/07/31 10:01:50;;;;;;;3.42;1.70;;;;;;;23.49;37.85;98960.47;5127376;28;20043;-70
2023/07/31 10:04:23;;;;;;;4.60;2.80;;;;;;;23.65;37.58;98930.63;5127619;28;20107;-70
2023/07/31 10:06:51;;;;;;;5.97;2.10;;;;;;;23.96;37.49;98960.38;5127424;28;20311;-70
2023/07/31 10:09:19;;;;;;;4.55;2.05;;;;;;;23.63;37.76;98924.56;5127503;28;20116;-70
2023/07/31 10:11:52;;;;;;;3.25;2.03;;;;;;;24.13;37.30;98955.72;5126638;28;20097;-70
2023/07/31 10:14:21;;;;;;;6.40;3.30;;;;;;;24.32;36.94;98947.09;5127833;28;20066;-70
2023/07/31 10:16:50;;;;;;;5.38;3.03;;;;;;;24.36;36.74;98942.16;5127599;28;20097;-70
2023/07/31 10:19:17;;;;;;;5.25;2.88;;;;;;;24.51;37.59;98935.75;5127309;28;20055;-69
2023/07/31 10:21:44;;;;;;;3.58;2.40;;;;;;;24.37;36.86;98933.84;5126177;28;20291;-69
2023/07/31 10:24:13;;;;;;;5.28;2.13;;;;;;;24.25;35.96;98946.16;5127341;28;20047;-69
2023/07/31 10:26:40;;;;;;;3.88;2.00;;;;;;;24.20;36.72;98927.75;5127039;28;20043;-69
2023/07/31 10:29:08;;;;;;;4.03;2.33;;;;;;;24.44;35.86;98894.19;5126490;28;20063;-70
2023/07/31 10:31:36;;;;;;;5.28;2.90;;;;;;;24.70;35.02;98885.66;5126295;28;20043;-70
2023/07/31 10:34:06;;;;;;;3.83;2.50;;;;;;;25.06;35.72;98912.03;5127142;28;20092;-70
2023/07/31 10:36:34;;;;;;;4.07;2.15;;;;;;;24.77;36.47;98888.47;5125860;28;20051;-69
2023/07/31 10:39:05;;;;;;;3.67;2.40;;;;;;;24.91;35.89;98909.28;5127164;28;20051;-69
2023/07/31 10:41:32;;;;;;;4.55;2.30;;;;;;;25.01;36.24;98909.88;5125893;28;20110;-70
2023/07/31 10:44:00;;;;;;;4.15;2.35;;;;;;;25.02;36.07;98908.84;5125998;28;20039;-69
2023/07/31 10:46:29;;;;;;;5.45;2.40;;;;;;;24.75;35.36;98904.06;5127254;28;20291;-69
2023/07/31 10:48:59;;;;;;;4.50;2.30;;;;;;;24.87;35.79;98902.56;5127014;28;20108;-70
2023/07/31 10:51:34;;;;;;;3.65;2.22;;;;;;;25.08;34.34;98894.56;5126721;28;20112;-69
2023/07/31 10:54:12;;;;;;;5.32;2.33;;;;;;;25.03;35.22;98883.44;5127082;28;20072;-69
2023/07/31 10:56:39;;;;;;;5.47;2.40;;;;;;;25.31;34.89;98886.28;5125802;28;20051;-70
2023/07/31 10:59:06;;;;;;;5.22;2.10;;;;;;;25.35;34.92;98884.06;5126830;28;20050;-68
2023/07/31 11:01:54;;;;;;;4.93;2.50;;;;;;;25.41;34.93;98888.72;5125493;28;20035;-69
2023/07/31 11:04:24;;;;;;;6.85;2.35;;;;;;;24.92;34.62;98883.88;5127100;28;20240;-68
2023/07/31 11:06:59;;;;;;;2.67;1.85;;;;;;;24.84;35.11;98881.25;5125453;28;20044;-69
2023/07/31 11:09:30;;;;;;;3.10;1.90;;;;;;;25.08;34.39;98869.31;5125464;28;20061;-69
2023/07/31 11:11:57;;;;;;;6.90;2.80;;;;;;;24.83;34.41;98811.81;5126455;28;20295;-69
2023/07/31 11:14:24;;;;;;;6.50;2.50;;;;;;;25.15;34.15;98835.81;5126353;28;20039;-69
2023/07/31 11:16:51;;;;;;;3.85;2.25;;;;;;;25.41;33.82;98861.59;5126524;28;20100;-69
2023/07/31 11:19:22;;;;;;;4.93;2.63;;;;;;;25.50;34.38;98839.59;5126546;28;20043;-71
2023/07/31 11:21:49;;;;;;;3.38;2.28;;;;;;;25.54;32.77;98853.63;5125268;28;20253;-71
2023/07/31 11:24:17;;;;;;;3.80;2.63;;;;;;;25.54;32.97;98851.75;5125982;28;20039;-68
2023/07/31 11:26:50;;;;;;;5.05;2.70;;;;;;;25.79;33.72;98845.94;5125205;28;20105;-69
2023/07/31 11:29:17;;;;;;;3.83;2.30;;;;;;;25.32;33.63;98808.47;5126038;28;20044;-69
2023/07/31 11:31:44;;;;;;;2.90;1.98;;;;;;;25.31;34.09;98842.06;5126346;28;20047;-69
2023/07/31 11:34:10;;;;;;;5.28;2.38;;;;;;;25.36;34.24;98845.06;5125753;28;20043;-69
2023/07/31 11:36:37;;;;;;;3.47;1.92;;;;;;;25.46;33.83;98837.47;5125845;28;20051;-70